If you wish to contribute or participate in the discussions about articles you are invited to join SKYbrary as a registered user

 Actions

Matsuyama Airport

From SKYbrary Wiki

RJOM
Airport
ICAO: RJOM – IATA: MYJ
Summary
Name Matsuyama Airport
Region Asia and Pacific
Territory Japan JP.gif
Location Matsuyama, Ehime Prefecture
Serving Matsuyama
Elevation 3.962 m
13 ft3.962 m
Coordinates 33° 49' 44.57" N, 132° 42' 14.75" E
Runways
Designator Length Width Surface ROPS
14/32 2499 m8,198.819 ft
46 m150.919 ft
ASP yes/yes


METAR
Observation RJOM 190300Z 04011KT 9999 FEW035 27/16 Q1014
Station Matsuyama Airport
Date/Time 19 September 2019 03:00:00
Wind direction 40°
Wind speed 11 kts
Lowest cloud amount few clouds
Temperature 27°C
Dew point 16°C
Humidity 51%
QNH 1014 hPa
Weather condition n/a

airport located 5.6km3.024 nm
5,600 m
18,372.703 ft
west southwest of Matsuyama, Ehime, Japan.

Climatology

Humid Sub-tropical climate (Köppen climate classification Cfa)

Maps

Terrain

Loading map...

Airport Layout

Loading map...


Accidents & Serious Incidents at or in vicinity of RJOM

None on SKYbrary